Time;durP1;ratioP1;P1;durP2;ratioP2;P2;SDS_P1;SDS_P2;PMS_P1;PMS_P2;Temp;Humidity;BMP_temperature;BMP_pressure;BME280_temperature;BME280_humidity;BME280_pressure;Samples;Min_cycle;Max_cycle;Signal;HPM_P1;HPM_P2
2023/05/03 00:00:16;;;;;;;6.35;3.83;;;;;;;;;;4994078;28;20670;-70
2023/05/03 00:02:43;;;;;;;4.25;2.95;;;;;;;;;;4994185;28;20242;-70
2023/05/03 00:05:13;;;;;;;3.22;2.72;;;;;;;;;;4993785;28;20256;-70
2023/05/03 00:07:40;;;;;;;4.15;3.75;;;;;;;;;;4994108;28;20310;-70
2023/05/03 00:10:09;;;;;;;4.32;3.10;;;;;;;;;;4994108;28;20196;-69
2023/05/03 00:12:36;;;;;;;5.53;3.20;;;;;;;;;;4994075;28;20199;-70
2023/05/03 00:15:05;;;;;;;4.43;3.65;;;;;;;;;;4993881;28;20204;-73
2023/05/03 00:17:33;;;;;;;6.07;3.22;;;;;;;;;;4994207;28;20594;-70
2023/05/03 00:20:00;;;;;;;7.28;3.50;;;;;;;;;;4994038;28;20231;-70
2023/05/03 00:22:27;;;;;;;5.20;3.10;;;;;;;;;;4993704;28;20211;-70
2023/05/03 00:24:55;;;;;;;10.35;3.53;;;;;;;;;;4994259;28;20202;-70
2023/05/03 00:27:22;;;;;;;5.75;3.45;;;;;;;;;;4993873;28;20581;-69
2023/05/03 00:29:51;;;;;;;7.70;3.50;;;;;;;;;;4993648;28;20731;-70
2023/05/03 00:32:21;;;;;;;7.55;3.70;;;;;;;;;;4993826;28;20208;-70
2023/05/03 00:34:48;;;;;;;8.15;3.50;;;;;;;;;;4994301;28;20192;-71
2023/05/03 00:37:15;;;;;;;13.98;3.45;;;;;;;;;;4993312;28;20235;-70
2023/05/03 00:39:42;;;;;;;7.57;3.95;;;;;;;;;;4994100;28;20196;-70
2023/05/03 00:42:10;;;;;;;4.25;3.85;;;;;;;;;;4993632;28;20204;-70
2023/05/03 00:44:37;;;;;;;4.88;4.03;;;;;;;;;;4993807;28;20205;-70
2023/05/03 00:47:04;;;;;;;5.30;3.25;;;;;;;;;;4993668;28;20532;-70
2023/05/03 00:49:32;;;;;;;5.47;3.90;;;;;;;;;;4993467;28;20215;-70
2023/05/03 00:52:00;;;;;;;3.25;2.95;;;;;;;;;;4993284;28;20204;-70
2023/05/03 00:54:28;;;;;;;6.82;4.55;;;;;;;;;;4993428;28;20211;-70
2023/05/03 00:56:56;;;;;;;4.30;3.67;;;;;;;;;;4993324;28;20207;-70
2023/05/03 00:59:23;;;;;;;4.20;3.80;;;;;;;;;;4993383;28;20210;-70
2023/05/03 01:01:51;;;;;;;7.50;4.50;;;;;;;;;;4993557;28;20203;-70
2023/05/03 01:04:19;;;;;;;5.10;3.53;;;;;;;;;;4993752;28;20295;-70
2023/05/03 01:06:49;;;;;;;3.97;3.35;;;;;;;;;;4993499;28;20203;-70
2023/05/03 01:09:20;;;;;;;4.53;3.30;;;;;;;;;;4993089;28;20246;-70
2023/05/03 01:11:48;;;;;;;5.28;4.20;;;;;;;;;;4993817;28;20185;-70
2023/05/03 01:14:19;;;;;;;7.95;4.10;;;;;;;;;;4993572;28;20200;-70
2023/05/03 01:16:48;;;;;;;5.00;3.88;;;;;;;;;;4993993;28;20187;-70
2023/05/03 01:19:20;;;;;;;7.97;3.47;;;;;;;;;;4993866;28;20203;-70
2023/05/03 01:21:53;;;;;;;7.13;3.90;;;;;;;;;;4993594;28;20193;-70
2023/05/03 01:24:23;;;;;;;5.30;4.00;;;;;;;;;;4993996;28;20202;-69
2023/05/03 01:26:51;;;;;;;6.75;4.70;;;;;;;;;;4994664;28;20254;-70
2023/05/03 01:29:19;;;;;;;4.80;3.85;;;;;;;;;;4997129;28;20223;-70
2023/05/03 01:31:50;;;;;;;4.85;4.45;;;;;;;;;;4996544;28;20250;-69
2023/05/03 01:34:22;;;;;;;5.07;4.53;;;;;;;;;;4996899;28;20251;-70
2023/05/03 01:36:50;;;;;;;5.93;3.88;;;;;;;;;;4996876;28;20197;-70
2023/05/03 01:39:20;;;;;;;8.07;4.00;;;;;;;;;;4996366;28;20227;-70
2023/05/03 01:41:50;;;;;;;7.15;3.70;;;;;;;;;;4996720;28;20594;-70
2023/05/03 01:44:20;;;;;;;6.18;3.75;;;;;;;;;;4997064;28;20186;-71
2023/05/03 01:46:48;;;;;;;7.88;4.65;;;;;;;;;;4997153;28;20196;-71
2023/05/03 01:49:16;;;;;;;6.85;4.28;;;;;;;;;;4996825;28;20227;-70
2023/05/03 01:51:43;;;;;;;6.57;4.50;;;;;;;;;;4996690;28;20199;-70
2023/05/03 01:54:10;;;;;;;5.32;4.45;;;;;;;;;;4996190;28;20202;-70
2023/05/03 01:56:38;;;;;;;5.43;4.78;;;;;;;;;;4996080;28;20195;-70
2023/05/03 01:59:05;;;;;;;5.82;5.03;;;;;;;;;;4996477;28;20204;-71
2023/05/03 02:01:33;;;;;;;7.50;5.30;;;;;;;;;;4995901;28;20200;-71
2023/05/03 02:04:00;;;;;;;6.05;4.75;;;;;;;;;;4995937;28;20656;-70
2023/05/03 02:06:28;;;;;;;5.05;4.03;;;;;;;;;;4996321;28;20310;-71
2023/05/03 02:08:55;;;;;;;7.97;4.63;;;;;;;;;;4996329;28;20257;-71
2023/05/03 02:11:22;;;;;;;9.57;4.82;;;;;;;;;;4996190;28;20198;-70
2023/05/03 02:13:49;;;;;;;8.15;5.10;;;;;;;;;;4996370;28;20209;-70
2023/05/03 02:16:17;;;;;;;6.97;4.53;;;;;;;;;;4996188;28;20652;-70
2023/05/03 02:18:45;;;;;;;7.90;4.88;;;;;;;;;;4995702;28;20726;-70
2023/05/03 02:21:13;;;;;;;7.00;4.65;;;;;;;;;;4996570;28;20269;-70
2023/05/03 02:23:40;;;;;;;5.68;4.47;;;;;;;;;;4996067;28;20295;-70
2023/05/03 02:26:07;;;;;;;6.07;5.22;;;;;;;;;;4996185;28;20353;-70
2023/05/03 02:28:35;;;;;;;6.72;4.47;;;;;;;;;;4995884;28;20216;-70
2023/05/03 02:31:04;;;;;;;5.95;5.35;;;;;;;;;;4995776;28;20207;-70
2023/05/03 02:33:32;;;;;;;6.18;4.93;;;;;;;;;;4995676;28;20203;-70
2023/05/03 02:36:00;;;;;;;5.20;4.70;;;;;;;;;;4995712;28;20201;-70
2023/05/03 02:38:27;;;;;;;6.50;4.82;;;;;;;;;;4995773;28;20685;-70
2023/05/03 02:40:55;;;;;;;7.20;5.25;;;;;;;;;;4995567;28;20198;-70
2023/05/03 02:43:22;;;;;;;7.80;5.35;;;;;;;;;;4995209;28;20227;-70
2023/05/03 02:45:49;;;;;;;7.80;5.28;;;;;;;;;;4995197;28;20203;-71
2023/05/03 02:48:16;;;;;;;8.07;4.90;;;;;;;;;;4995272;28;20234;-70
2023/05/03 02:50:43;;;;;;;12.00;5.25;;;;;;;;;;4995484;28;20298;-70
2023/05/03 02:53:12;;;;;;;9.20;5.80;;;;;;;;;;4995281;28;20253;-70
2023/05/03 02:55:40;;;;;;;6.60;5.03;;;;;;;;;;4995405;28;20202;-70
2023/05/03 02:58:08;;;;;;;6.93;5.20;;;;;;;;;;4995175;28;20561;-70
2023/05/03 03:00:36;;;;;;;10.32;4.95;;;;;;;;;;4994910;28;20711;-70
2023/05/03 03:03:03;;;;;;;6.70;4.85;;;;;;;;;;4995232;28;20208;-70
2023/05/03 03:05:30;;;;;;;8.60;5.53;;;;;;;;;;4995140;28;20199;-70
2023/05/03 03:07:57;;;;;;;5.88;4.82;;;;;;;;;;4995150;28;20223;-70
2023/05/03 03:10:26;;;;;;;7.60;5.47;;;;;;;;;;4995032;28;20209;-70
2023/05/03 03:12:53;;;;;;;7.30;4.93;;;;;;;;;;4994910;28;20215;-70
2023/05/03 03:15:20;;;;;;;7.80;4.95;;;;;;;;;;4995230;28;20202;-70
2023/05/03 03:17:48;;;;;;;18.50;5.68;;;;;;;;;;4994865;28;20299;-70
2023/05/03 03:20:15;;;;;;;11.15;5.20;;;;;;;;;;4994949;28;20200;-71
2023/05/03 03:22:44;;;;;;;11.40;6.22;;;;;;;;;;4994825;28;20199;-70
2023/05/03 03:25:11;;;;;;;11.20;5.65;;;;;;;;;;4994820;28;20286;-71
2023/05/03 03:27:40;;;;;;;9.60;5.65;;;;;;;;;;4995225;28;20207;-71
2023/05/03 03:30:08;;;;;;;5.85;5.07;;;;;;;;;;4995275;28;20636;-75
2023/05/03 03:32:35;;;;;;;16.00;5.65;;;;;;;;;;4994689;28;20210;-70
2023/05/03 03:35:02;;;;;;;9.43;5.35;;;;;;;;;;4994621;28;20658;-71
2023/05/03 03:37:29;;;;;;;7.50;5.55;;;;;;;;;;4994426;28;20239;-72
2023/05/03 03:39:57;;;;;;;8.18;5.40;;;;;;;;;;4994637;28;20185;-71
2023/05/03 03:42:24;;;;;;;7.97;5.88;;;;;;;;;;4994518;28;20204;-71
2023/05/03 03:44:53;;;;;;;11.68;6.07;;;;;;;;;;5012289;28;20219;-71
2023/05/03 03:47:20;;;;;;;8.68;5.95;;;;;;;;;;5014202;28;20705;-70
2023/05/03 03:49:48;;;;;;;8.38;5.70;;;;;;;;;;5013091;28;20264;-71
2023/05/03 03:52:15;;;;;;;7.88;5.82;;;;;;;;;;5013994;28;20314;-71
2023/05/03 03:54:42;;;;;;;8.18;6.20;;;;;;;;;;5013734;28;20328;-71
2023/05/03 03:57:09;;;;;;;10.20;5.93;;;;;;;;;;5014246;28;20194;-71
2023/05/03 03:59:36;;;;;;;11.27;5.05;;;;;;;;;;5013329;28;20203;-71
2023/05/03 04:02:05;;;;;;;11.02;6.28;;;;;;;;;;5013494;28;20210;-71
2023/05/03 04:04:32;;;;;;;9.57;6.65;;;;;;;;;;5013643;28;20210;-71
2023/05/03 04:06:59;;;;;;;11.27;7.13;;;;;;;;;;5013515;28;20203;-71
2023/05/03 04:09:26;;;;;;;8.65;5.80;;;;;;;;;;5013485;28;20218;-71
2023/05/03 04:11:54;;;;;;;8.05;6.10;;;;;;;;;;5013652;28;20205;-72
2023/05/03 04:14:21;;;;;;;11.05;7.15;;;;;;;;;;5013530;28;20205;-71
2023/05/03 04:16:49;;;;;;;8.02;6.45;;;;;;;;;;5013283;28;20201;-71
2023/05/03 04:19:17;;;;;;;10.38;6.72;;;;;;;;;;5013437;28;20211;-71
2023/05/03 04:21:45;;;;;;;13.43;5.65;;;;;;;;;;5013563;28;20595;-70
2023/05/03 04:24:16;;;;;;;11.77;6.50;;;;;;;;;;5013391;28;20245;-70
2023/05/03 04:26:43;;;;;;;10.40;7.05;;;;;;;;;;5013084;28;20190;-71
2023/05/03 04:29:11;;;;;;;8.93;6.40;;;;;;;;;;5013032;28;20678;-70
2023/05/03 04:31:38;;;;;;;11.23;6.80;;;;;;;;;;5013460;28;20212;-70
2023/05/03 04:34:06;;;;;;;14.63;5.80;;;;;;;;;;5012977;28;20203;-70
2023/05/03 04:36:35;;;;;;;7.93;5.57;;;;;;;;;;5013434;28;20234;-70
2023/05/03 04:39:02;;;;;;;7.75;6.30;;;;;;;;;;5013707;28;20312;-73
2023/05/03 04:41:29;;;;;;;10.95;6.03;;;;;;;;;;5013366;28;20557;-73
2023/05/03 04:43:56;;;;;;;17.48;6.18;;;;;;;;;;5013256;28;20199;-70
2023/05/03 04:46:23;;;;;;;11.70;6.13;;;;;;;;;;5013059;28;20199;-70
2023/05/03 04:48:51;;;;;;;13.45;6.90;;;;;;;;;;5012694;28;20226;-70
2023/05/03 04:51:18;;;;;;;12.00;7.47;;;;;;;;;;5013300;28;20202;-70
2023/05/03 04:53:46;;;;;;;14.80;7.47;;;;;;;;;;5013318;28;20230;-70
2023/05/03 04:56:13;;;;;;;12.55;7.18;;;;;;;;;;5013390;28;20224;-70
2023/05/03 04:58:41;;;;;;;12.13;7.43;;;;;;;;;;5013231;28;20199;-70
2023/05/03 05:01:08;;;;;;;10.27;6.95;;;;;;;;;;5013313;28;20206;-70
2023/05/03 05:03:35;;;;;;;7.63;6.55;;;;;;;;;;5016897;28;20200;-69
2023/05/03 05:06:02;;;;;;;11.50;7.63;;;;;;;;;;5016820;28;20203;-69
2023/05/03 05:08:30;;;;;;;7.68;6.03;;;;;;;;;;5017145;28;20198;-69
2023/05/03 05:10:58;;;;;;;7.13;6.43;;;;;;;;;;5016721;28;20237;-70
2023/05/03 05:13:25;;;;;;;8.13;5.45;;;;;;;;;;5016388;28;20198;-69
2023/05/03 05:15:54;;;;;;;10.43;6.47;;;;;;;;;;5016540;28;20210;-69
2023/05/03 05:18:21;;;;;;;10.27;6.38;;;;;;;;;;5016633;28;20201;-70
2023/05/03 05:20:48;;;;;;;9.50;5.65;;;;;;;;;;5016297;28;20214;-69
2023/05/03 05:23:16;;;;;;;10.55;6.50;;;;;;;;;;5016445;28;20213;-70
2023/05/03 05:25:43;;;;;;;8.27;5.90;;;;;;;;;;5016255;28;20196;-69
2023/05/03 05:28:11;;;;;;;13.80;6.15;;;;;;;;;;5016784;28;20539;-69
2023/05/03 05:30:39;;;;;;;14.70;6.78;;;;;;;;;;5016527;28;20235;-70
2023/05/03 05:33:06;;;;;;;11.07;7.75;;;;;;;;;;5016443;28;20196;-70
2023/05/03 05:35:34;;;;;;;8.77;5.90;;;;;;;;;;5016181;28;20203;-70
2023/05/03 05:38:01;;;;;;;7.90;4.82;;;;;;;;;;5016249;28;20232;-69
2023/05/03 05:40:28;;;;;;;7.53;5.10;;;;;;;;;;5016275;28;20275;-70
2023/05/03 05:42:55;;;;;;;8.00;5.35;;;;;;;;;;5015985;28;20202;-69
2023/05/03 05:45:24;;;;;;;10.20;5.20;;;;;;;;;;5015827;28;20199;-69
2023/05/03 05:47:51;;;;;;;9.15;4.90;;;;;;;;;;5016607;28;20289;-69
2023/05/03 05:50:19;;;;;;;6.68;5.00;;;;;;;;;;5015689;28;20227;-69
2023/05/03 05:52:46;;;;;;;7.82;4.88;;;;;;;;;;5016067;28;20205;-70
2023/05/03 05:55:14;;;;;;;8.38;4.75;;;;;;;;;;5015875;28;20203;-69
2023/05/03 05:57:41;;;;;;;9.55;4.90;;;;;;;;;;5016776;28;20550;-69
2023/05/03 06:00:13;;;;;;;11.77;4.75;;;;;;;;;;5016305;28;20203;-69
2023/05/03 06:02:42;;;;;;;10.38;5.35;;;;;;;;;;5015882;28;20191;-69
2023/05/03 06:05:10;;;;;;;5.90;4.15;;;;;;;;;;5015629;28;20262;-69
2023/05/03 06:07:37;;;;;;;9.55;5.43;;;;;;;;;;5015731;28;20555;-69
2023/05/03 06:10:04;;;;;;;8.32;3.90;;;;;;;;;;5015591;28;20234;-69
2023/05/03 06:12:31;;;;;;;3.90;3.50;;;;;;;;;;5015014;28;20262;-70
2023/05/03 06:14:59;;;;;;;5.15;4.68;;;;;;;;;;5015298;28;20203;-70
2023/05/03 06:17:26;;;;;;;6.72;4.10;;;;;;;;;;5015252;28;20203;-70
2023/05/03 06:19:54;;;;;;;6.13;3.75;;;;;;;;;;5015453;28;20196;-70
2023/05/03 06:22:22;;;;;;;6.90;4.30;;;;;;;;;;5015293;28;20667;-70
2023/05/03 06:24:49;;;;;;;5.10;3.60;;;;;;;;;;5015174;28;20204;-70
2023/05/03 06:27:16;;;;;;;4.75;3.58;;;;;;;;;;5015135;28;20198;-70
2023/05/03 06:29:44;;;;;;;6.10;4.95;;;;;;;;;;5015390;28;20219;-70
2023/05/03 06:32:11;;;;;;;6.32;3.78;;;;;;;;;;5015131;28;20661;-70
2023/05/03 06:34:39;;;;;;;7.38;3.03;;;;;;;;;;5016200;28;20206;-70
2023/05/03 06:37:07;;;;;;;4.85;3.50;;;;;;;;;;5014765;28;20203;-70
2023/05/03 06:39:34;;;;;;;9.63;6.03;;;;;;;;;;5015671;28;20569;-70
2023/05/03 06:42:02;;;;;;;6.35;3.83;;;;;;;;;;5015197;28;20250;-70
2023/05/03 06:44:29;;;;;;;6.10;3.25;;;;;;;;;;5015227;28;20193;-70
2023/05/03 06:46:56;;;;;;;4.70;3.43;;;;;;;;;;5015080;28;20211;-70
2023/05/03 06:49:23;;;;;;;6.32;3.65;;;;;;;;;;5015058;28;20483;-70
2023/05/03 06:51:51;;;;;;;5.97;4.00;;;;;;;;;;5015350;28;20299;-70
2023/05/03 06:54:19;;;;;;;6.53;4.05;;;;;;;;;;5015415;28;20281;-70
2023/05/03 06:56:46;;;;;;;6.70;3.83;;;;;;;;;;5014570;28;20732;-70
2023/05/03 06:59:13;;;;;;;8.23;3.75;;;;;;;;;;5014998;28;20450;-70
2023/05/03 07:01:41;;;;;;;4.82;3.45;;;;;;;;;;5014927;28;20618;-70
2023/05/03 07:04:08;;;;;;;6.73;3.20;;;;;;;;;;5014920;28;20198;-70
2023/05/03 07:06:35;;;;;;;8.33;3.87;;;;;;;;;;5015090;28;20439;-71
2023/05/03 07:09:02;;;;;;;6.95;4.55;;;;;;;;;;5014555;28;20457;-70
2023/05/03 07:11:33;;;;;;;6.90;3.60;;;;;;;;;;5014720;28;20606;-70
2023/05/03 07:14:00;;;;;;;5.37;2.97;;;;;;;;;;5014545;28;20478;-70
2023/05/03 07:16:28;;;;;;;8.93;3.60;;;;;;;;;;5014675;28;20566;-69
2023/05/03 07:18:55;;;;;;;4.68;2.85;;;;;;;;;;5015111;28;20286;-69
2023/05/03 07:21:22;;;;;;;6.00;3.10;;;;;;;;;;5014651;28;20645;-69
2023/05/03 07:23:49;;;;;;;5.95;2.63;;;;;;;;;;5014342;28;20200;-69
2023/05/03 07:26:16;;;;;;;3.47;3.17;;;;;;;;;;5015059;28;20553;-70
2023/05/03 07:28:45;;;;;;;4.50;3.33;;;;;;;;;;5014499;28;20446;-70
2023/05/03 07:31:12;;;;;;;7.83;3.63;;;;;;;;;;5013990;28;20478;-70
2023/05/03 07:33:39;;;;;;;4.13;2.90;;;;;;;;;;5014709;28;20847;-70
2023/05/03 07:36:07;;;;;;;8.23;3.50;;;;;;;;;;5014197;28;20810;-70
2023/05/03 07:38:34;;;;;;;3.20;2.70;;;;;;;;;;5014219;28;20220;-70
2023/05/03 07:41:02;;;;;;;9.02;3.78;;;;;;;;;;5014190;28;20537;-71
2023/05/03 07:43:29;;;;;;;6.27;3.40;;;;;;;;;;5014236;28;20227;-70
2023/05/03 07:45:58;;;;;;;4.05;3.10;;;;;;;;;;5014033;28;20454;-70
2023/05/03 07:48:25;;;;;;;9.80;3.10;;;;;;;;;;5014018;28;20201;-70
2023/05/03 07:50:53;;;;;;;5.05;3.25;;;;;;;;;;5014087;28;20482;-70
2023/05/03 07:53:20;;;;;;;3.10;2.60;;;;;;;;;;5013945;28;20196;-70
2023/05/03 07:55:47;;;;;;;6.20;3.70;;;;;;;;;;5013709;28;20546;-70
2023/05/03 07:58:14;;;;;;;5.37;2.60;;;;;;;;;;5013896;28;20937;-70
2023/05/03 08:00:41;;;;;;;3.30;2.75;;;;;;;;;;5014449;28;20828;-69
2023/05/03 08:03:10;;;;;;;4.97;3.30;;;;;;;;;;5013923;28;20554;-70
2023/05/03 08:05:37;;;;;;;3.90;2.70;;;;;;;;;;5013931;28;20196;-70
2023/05/03 08:08:05;;;;;;;9.93;2.95;;;;;;;;;;5013662;28;20366;-70
2023/05/03 08:10:36;;;;;;;6.20;3.08;;;;;;;;;;5013768;28;20221;-69
2023/05/03 08:13:04;;;;;;;8.63;2.80;;;;;;;;;;5013918;28;20191;-69
2023/05/03 08:15:31;;;;;;;5.63;3.08;;;;;;;;;;5014013;28;20440;-69
2023/05/03 08:17:58;;;;;;;11.23;3.85;;;;;;;;;;5013869;28;20200;-69
2023/05/03 08:20:27;;;;;;;9.00;3.17;;;;;;;;;;5013287;28;20201;-69
2023/05/03 08:22:55;;;;;;;9.00;3.33;;;;;;;;;;5013498;28;20443;-69
2023/05/03 08:25:23;;;;;;;11.23;3.77;;;;;;;;;;5013573;28;20440;-69
2023/05/03 08:27:51;;;;;;;8.80;3.50;;;;;;;;;;5013437;28;20451;-69
2023/05/03 08:30:18;;;;;;;5.50;3.07;;;;;;;;;;5013499;28;20976;-69
2023/05/03 08:32:45;;;;;;;4.93;3.50;;;;;;;;;;5012767;28;20473;-69
2023/05/03 08:35:14;;;;;;;7.17;3.40;;;;;;;;;;5013785;28;20443;-70
2023/05/03 08:37:43;;;;;;;6.07;3.30;;;;;;;;;;5017329;28;20481;-70
2023/05/03 08:40:12;;;;;;;5.37;2.97;;;;;;;;;;5017439;28;20451;-70
2023/05/03 08:42:41;;;;;;;5.50;2.60;;;;;;;;;;5017538;28;20450;-70
2023/05/03 08:45:10;;;;;;;6.30;3.70;;;;;;;;;;5018070;28;20200;-70
2023/05/03 08:47:39;;;;;;;5.47;3.33;;;;;;;;;;5017011;28;20448;-69
2023/05/03 08:50:07;;;;;;;5.43;3.37;;;;;;;;;;5018278;28;20510;-69
2023/05/03 08:52:35;;;;;;;4.53;2.80;;;;;;;;;;5017241;28;20450;-69
2023/05/03 08:55:04;;;;;;;4.63;3.43;;;;;;;;;;5017293;28;20440;-70
2023/05/03 08:57:31;;;;;;;4.83;4.07;;;;;;;;;;5017095;28;20469;-70
2023/05/03 09:00:00;;;;;;;8.03;3.63;;;;;;;;;;5017131;28;20463;-70
2023/05/03 09:02:27;;;;;;;4.80;3.30;;;;;;;;;;5017000;28;20535;-69
2023/05/03 09:04:56;;;;;;;7.90;3.20;;;;;;;;;;5017233;28;20814;-68
2023/05/03 09:07:23;;;;;;;5.33;3.53;;;;;;;;;;5016909;28;20445;-70
2023/05/03 09:09:50;;;;;;;5.83;3.30;;;;;;;;;;5017208;28;20480;-69
2023/05/03 09:12:32;;;;;;;6.67;3.80;;;;;;;;;;5016815;28;20464;-70
2023/05/03 09:15:01;;;;;;;6.07;4.00;;;;;;;;;;5017039;28;20433;-69
2023/05/03 09:17:28;;;;;;;8.67;3.80;;;;;;;;;;5016427;28;21046;-70
2023/05/03 09:19:56;;;;;;;3.40;3.10;;;;;;;;;;5016469;28;20446;-69
2023/05/03 09:22:24;;;;;;;6.67;4.97;;;;;;;;;;5016692;28;20464;-70
2023/05/03 09:24:52;;;;;;;5.43;3.37;;;;;;;;;;5016687;28;20442;-69
2023/05/03 09:27:21;;;;;;;4.10;3.23;;;;;;;;;;5016706;28;20832;-69
2023/05/03 09:29:48;;;;;;;8.93;4.23;;;;;;;;;;5016057;28;20501;-70
2023/05/03 09:32:17;;;;;;;3.10;2.80;;;;;;;;;;5017028;28;20801;-69
2023/05/03 09:34:44;;;;;;;6.10;3.60;;;;;;;;;;5016434;28;20453;-69
2023/05/03 09:37:12;;;;;;;8.30;3.90;;;;;;;;;;5016183;28;20471;-70
2023/05/03 09:39:41;;;;;;;7.60;4.07;;;;;;;;;;5016401;28;20435;-69
2023/05/03 09:42:11;;;;;;;8.47;3.90;;;;;;;;;;5016356;28;20451;-69
2023/05/03 09:44:47;;;;;;;4.87;3.30;;;;;;;;;;5015861;28;20444;-69
2023/05/03 09:47:15;;;;;;;7.73;3.87;;;;;;;;;;5015292;28;20448;-69
2023/05/03 09:49:44;;;;;;;7.10;3.50;;;;;;;;;;5016381;28;20494;-69
2023/05/03 09:52:12;;;;;;;8.80;3.40;;;;;;;;;;5016284;28;20502;-69
2023/05/03 09:54:39;;;;;;;9.40;3.40;;;;;;;;;;5015708;28;20444;-69
2023/05/03 09:57:07;;;;;;;7.33;3.23;;;;;;;;;;5015971;28;20481;-69
2023/05/03 09:59:35;;;;;;;5.27;3.27;;;;;;;;;;5015876;28;20441;-69
2023/05/03 10:02:03;;;;;;;6.83;3.47;;;;;;;;;;5015606;28;20456;-69
2023/05/03 10:04:36;;;;;;;3.13;2.87;;;;;;;;;;5015476;28;20530;-69
2023/05/03 10:07:07;;;;;;;5.07;3.57;;;;;;;;;;5015698;28;20443;-69
2023/05/03 10:09:38;;;;;;;7.10;3.53;;;;;;;;;;5015635;28;20458;-69
2023/05/03 10:12:07;;;;;;;7.17;3.50;;;;;;;;;;5015784;28;20523;-70
2023/05/03 10:14:35;;;;;;;7.23;3.33;;;;;;;;;;5015802;28;20473;-69
2023/05/03 10:17:04;;;;;;;4.37;3.47;;;;;;;;;;5015695;28;20521;-69
2023/05/03 10:19:35;;;;;;;5.40;3.43;;;;;;;;;;5015557;28;20447;-69
2023/05/03 10:22:05;;;;;;;6.07;3.67;;;;;;;;;;5015370;28;20436;-69
2023/05/03 10:24:33;;;;;;;7.43;3.50;;;;;;;;;;5015504;28;20424;-69
2023/05/03 10:27:00;;;;;;;5.63;3.60;;;;;;;;;;5016169;28;20466;-69
2023/05/03 10:29:47;;;;;;;4.50;3.57;;;;;;;;;;5015504;28;20913;-70
2023/05/03 10:32:34;;;;;;;5.63;4.10;;;;;;;;;;5015631;28;20525;-69
2023/05/03 10:35:02;;;;;;;3.60;3.30;;;;;;;;;;5015248;28;20511;-69
2023/05/03 10:37:31;;;;;;;6.93;4.10;;;;;;;;;;5015284;28;20492;-69
2023/05/03 10:40:05;;;;;;;12.40;3.60;;;;;;;;;;5014947;28;20521;-70
2023/05/03 10:42:33;;;;;;;5.80;3.80;;;;;;;;;;5014959;28;20436;-69
2023/05/03 10:45:02;;;;;;;3.60;3.40;;;;;;;;;;5015014;28;20535;-70
2023/05/03 10:47:29;;;;;;;5.63;3.40;;;;;;;;;;5015084;28;20445;-70
2023/05/03 10:50:23;;;;;;;4.33;3.27;;;;;;;;;;5014709;28;20979;-69
2023/05/03 10:52:52;;;;;;;6.50;3.60;;;;;;;;;;4969474;28;20485;-69
2023/05/03 10:55:20;;;;;;;4.20;3.80;;;;;;;;;;5015102;28;20501;-69
2023/05/03 10:57:49;;;;;;;11.67;3.90;;;;;;;;;;5014470;28;20505;-69
2023/05/03 11:00:18;;;;;;;5.90;4.17;;;;;;;;;;5014031;28;20456;-70
2023/05/03 11:02:57;;;;;;;6.70;4.30;;;;;;;;;;5015054;28;20442;-70
2023/05/03 11:05:24;;;;;;;13.60;3.93;;;;;;;;;;5014499;28;20430;-70
2023/05/03 11:07:53;;;;;;;5.23;3.90;;;;;;;;;;5014737;28;20457;-70
2023/05/03 11:10:21;;;;;;;4.47;3.80;;;;;;;;;;5014606;28;20852;-70
2023/05/03 11:12:49;;;;;;;11.00;4.23;;;;;;;;;;5014750;28;20444;-70
2023/05/03 11:15:16;;;;;;;4.20;3.60;;;;;;;;;;5014252;28;20440;-70
2023/05/03 11:17:43;;;;;;;7.77;4.27;;;;;;;;;;5014582;28;20447;-70
2023/05/03 11:20:12;;;;;;;4.50;3.60;;;;;;;;;;5014444;28;20452;-70
2023/05/03 11:22:39;;;;;;;3.77;3.07;;;;;;;;;;5014488;28;20442;-70
2023/05/03 11:25:08;;;;;;;5.20;4.40;;;;;;;;;;5014330;28;20450;-70
2023/05/03 11:27:35;;;;;;;4.53;4.13;;;;;;;;;;5014329;28;20460;-70
2023/05/03 11:30:02;;;;;;;3.47;3.10;;;;;;;;;;5014336;28;20526;-70
2023/05/03 11:32:30;;;;;;;3.60;3.30;;;;;;;;;;5013823;28;20522;-70
2023/05/03 11:35:01;;;;;;;8.57;4.27;;;;;;;;;;5014128;28;20444;-70
2023/05/03 11:37:28;;;;;;;10.00;4.67;;;;;;;;;;5013804;28;20571;-69
2023/05/03 11:39:55;;;;;;;9.30;3.90;;;;;;;;;;5014500;28;20467;-68
2023/05/03 11:42:25;;;;;;;6.80;4.13;;;;;;;;;;5014087;28;20452;-68
2023/05/03 11:44:53;;;;;;;4.80;4.40;;;;;;;;;;5013575;28;20444;-70
2023/05/03 11:47:21;;;;;;;5.57;4.60;;;;;;;;;;5013705;28;20939;-70
2023/05/03 11:49:52;;;;;;;6.60;3.83;;;;;;;;;;5013554;28;20931;-70
2023/05/03 11:52:21;;;;;;;8.20;4.30;;;;;;;;;;5014177;28;20480;-70
2023/05/03 11:54:48;;;;;;;6.03;3.90;;;;;;;;;;5013864;28;20449;-70
2023/05/03 11:57:16;;;;;;;5.30;4.77;;;;;;;;;;5013906;28;20482;-70
2023/05/03 11:59:45;;;;;;;7.60;3.93;;;;;;;;;;5013752;28;20443;-70
2023/05/03 12:02:12;;;;;;;8.67;4.80;;;;;;;;;;5014128;28;20442;-70
2023/05/03 12:04:41;;;;;;;8.70;4.53;;;;;;;;;;5013741;28;20454;-70
2023/05/03 12:07:08;;;;;;;9.50;4.30;;;;;;;;;;5013719;28;20437;-70
2023/05/03 12:09:35;;;;;;;8.23;4.47;;;;;;;;;;5013275;28;20454;-70
2023/05/03 12:12:03;;;;;;;6.10;5.00;;;;;;;;;;5013283;28;20773;-70
2023/05/03 12:14:50;;;;;;;5.27;4.77;;;;;;;;;;5013668;28;20481;-70
2023/05/03 12:17:32;;;;;;;5.03;4.33;;;;;;;;;;5013782;28;20430;-71
2023/05/03 12:20:15;;;;;;;4.87;4.00;;;;;;;;;;5014022;28;20438;-69
2023/05/03 12:22:44;;;;;;;9.20;4.33;;;;;;;;;;5013380;28;20924;-69
2023/05/03 12:25:11;;;;;;;5.90;5.30;;;;;;;;;;5013601;28;20442;-69
2023/05/03 12:27:38;;;;;;;7.67;4.50;;;;;;;;;;5013310;28;20965;-70
2023/05/03 12:30:09;;;;;;;4.80;4.40;;;;;;;;;;5013143;28;20449;-69
2023/05/03 12:32:37;;;;;;;6.57;4.70;;;;;;;;;;5012589;28;20467;-69
2023/05/03 12:35:04;;;;;;;5.00;4.60;;;;;;;;;;5013306;28;20489;-70
2023/05/03 12:37:31;;;;;;;7.40;4.40;;;;;;;;;;5012842;28;20834;-69
2023/05/03 12:40:00;;;;;;;7.70;4.67;;;;;;;;;;5013061;28;20880;-69
2023/05/03 12:42:28;;;;;;;8.30;4.70;;;;;;;;;;5012936;28;20516;-69
2023/05/03 12:44:57;;;;;;;6.67;4.87;;;;;;;;;;5012959;28;20500;-69
2023/05/03 12:47:25;;;;;;;6.00;5.00;;;;;;;;;;5012947;28;20453;-69
2023/05/03 12:49:52;;;;;;;8.53;4.70;;;;;;;;;;5012935;28;20446;-69
2023/05/03 12:52:20;;;;;;;6.00;4.83;;;;;;;;;;5013100;28;20481;-69
2023/05/03 12:54:48;;;;;;;6.03;4.77;;;;;;;;;;5013218;28;20449;-70
2023/05/03 12:57:17;;;;;;;9.47;4.73;;;;;;;;;;5013000;28;20435;-69
2023/05/03 12:59:44;;;;;;;5.27;4.77;;;;;;;;;;5013520;28;20455;-69
2023/05/03 13:02:12;;;;;;;6.00;4.50;;;;;;;;;;4999952;28;20444;-69
2023/05/03 13:04:39;;;;;;;9.20;4.40;;;;;;;;;;4997064;28;20959;-69
2023/05/03 13:07:07;;;;;;;6.63;5.43;;;;;;;;;;5012891;28;20493;-69
2023/05/03 13:09:34;;;;;;;5.87;5.37;;;;;;;;;;5013451;28;20447;-69
2023/05/03 13:12:01;;;;;;;5.20;4.80;;;;;;;;;;5012662;28;20489;-69
2023/05/03 13:14:29;;;;;;;5.20;4.80;;;;;;;;;;5012723;28;20453;-69
2023/05/03 13:16:58;;;;;;;5.50;4.97;;;;;;;;;;5012827;28;20443;-69
2023/05/03 13:19:26;;;;;;;7.60;5.40;;;;;;;;;;5013113;28;20456;-70
2023/05/03 13:21:54;;;;;;;11.10;5.50;;;;;;;;;;5012569;28;20453;-69
2023/05/03 13:24:21;;;;;;;9.43;5.60;;;;;;;;;;5016289;28;20929;-69
2023/05/03 13:26:48;;;;;;;8.20;5.53;;;;;;;;;;5016241;28;20814;-71
2023/05/03 13:29:15;;;;;;;8.13;5.50;;;;;;;;;;5016135;28;20449;-69
2023/05/03 13:31:44;;;;;;;7.33;5.20;;;;;;;;;;5016426;28;20485;-70
2023/05/03 13:34:11;;;;;;;5.43;4.93;;;;;;;;;;5016623;28;20445;-69
2023/05/03 13:36:38;;;;;;;7.10;5.30;;;;;;;;;;5016222;28;20447;-69
2023/05/03 13:39:08;;;;;;;12.87;5.93;;;;;;;;;;5016127;28;20486;-70
2023/05/03 13:41:37;;;;;;;5.23;4.40;;;;;;;;;;5016332;28;20811;-69
2023/05/03 13:44:05;;;;;;;7.60;5.10;;;;;;;;;;5016446;28;20450;-70
2023/05/03 13:46:32;;;;;;;6.10;5.33;;;;;;;;;;5015754;28;20463;-69
2023/05/03 13:49:00;;;;;;;10.17;5.10;;;;;;;;;;5015999;28;20883;-70
2023/05/03 13:51:28;;;;;;;5.97;4.70;;;;;;;;;;5015647;28;21008;-69
2023/05/03 13:53:55;;;;;;;6.43;5.13;;;;;;;;;;5016075;28;20456;-69
2023/05/03 13:56:22;;;;;;;8.40;4.90;;;;;;;;;;5015930;28;20449;-69
2023/05/03 13:58:49;;;;;;;6.43;5.10;;;;;;;;;;5015865;28;20461;-70
2023/05/03 14:01:16;;;;;;;5.80;5.20;;;;;;;;;;5015898;28;20442;-69
2023/05/03 14:03:44;;;;;;;6.90;5.20;;;;;;;;;;5015763;28;20435;-69
2023/05/03 14:06:12;;;;;;;6.07;5.40;;;;;;;;;;5016196;28;20916;-68
2023/05/03 14:08:40;;;;;;;5.20;4.70;;;;;;;;;;5015244;28;20542;-69
2023/05/03 14:11:12;;;;;;;6.00;4.20;;;;;;;;;;5015249;28;20450;-69
2023/05/03 14:13:40;;;;;;;6.53;4.90;;;;;;;;;;5015677;28;20455;-69
2023/05/03 14:16:07;;;;;;;9.30;5.40;;;;;;;;;;5015547;28;20956;-69
2023/05/03 14:18:34;;;;;;;5.50;4.37;;;;;;;;;;5015513;28;20449;-69
2023/05/03 14:21:03;;;;;;;6.43;4.93;;;;;;;;;;5015378;28;20435;-67
2023/05/03 14:23:31;;;;;;;4.93;4.33;;;;;;;;;;5015397;28;20505;-68
2023/05/03 14:25:59;;;;;;;8.67;5.40;;;;;;;;;;5015035;28;20939;-69
2023/05/03 14:28:26;;;;;;;11.43;6.30;;;;;;;;;;5015281;28;20451;-68
2023/05/03 14:30:53;;;;;;;7.43;5.43;;;;;;;;;;5014745;28;20446;-68
2023/05/03 14:33:21;;;;;;;9.20;5.77;;;;;;;;;;5014532;28;20482;-69
2023/05/03 14:35:48;;;;;;;5.23;4.40;;;;;;;;;;5014880;28;20446;-69
2023/05/03 14:38:15;;;;;;;5.40;4.90;;;;;;;;;;5014966;28;20497;-69
2023/05/03 14:40:44;;;;;;;5.10;4.63;;;;;;;;;;5015099;28;20443;-69
2023/05/03 14:43:11;;;;;;;5.90;5.00;;;;;;;;;;5014687;28;20550;-69
2023/05/03 14:45:38;;;;;;;5.53;4.90;;;;;;;;;;5015177;28;20443;-70